Time;durP1;ratioP1;P1;durP2;ratioP2;P2;SDS_P1;SDS_P2;PMS_P1;PMS_P2;Temp;Humidity;BMP_temperature;BMP_pressure;BME280_temperature;BME280_humidity;BME280_pressure;Samples;Min_cycle;Max_cycle;Signal;HPM_P1;HPM_P2
2023/03/04 11:50:15;;;;;;;41.75;24.50;;;;;;;10.95;100.00;100313.72;5032901;27;20607;-72
2023/03/04 11:52:46;;;;;;;54.28;35.40;;;;;;;11.69;100.00;100438.69;5000315;28;20042;-76
2023/03/04 11:55:23;;;;;;;59.30;40.28;;;;;;;11.82;100.00;100428.13;5018555;28;20616;-77
2023/03/04 11:58:15;;;;;;;62.80;41.75;;;;;;;11.57;100.00;100419.47;4992666;28;20100;-75
2023/03/04 12:00:59;;;;;;;66.55;40.83;;;;;;;11.57;100.00;100413.34;4995341;28;20154;-74
2023/03/04 12:03:52;;;;;;;58.85;39.33;;;;;;;11.93;100.00;100414.06;5008111;28;20041;-75
2023/03/04 12:06:33;;;;;;;59.20;41.00;;;;;;;11.28;100.00;100327.59;4998843;28;20053;-75
2023/03/04 12:09:14;;;;;;;52.05;40.13;;;;;;;10.75;100.00;100300.66;4998445;28;20042;-73
2023/03/04 12:12:01;;;;;;;64.80;46.13;;;;;;;11.77;100.00;100397.44;4996408;28;20184;-72
2023/03/04 12:14:42;;;;;;;57.80;40.70;;;;;;;11.75;100.00;100391.31;4990943;28;20459;-77
2023/03/04 12:17:27;;;;;;;66.40;41.80;;;;;;;11.25;100.00;100327.63;4994063;28;20054;-75
2023/03/04 12:20:07;;;;;;;58.63;40.22;;;;;;;11.39;100.00;100383.59;5000839;28;20069;-72
2023/03/04 12:22:49;;;;;;;70.18;44.17;;;;;;;11.46;100.00;100383.59;4998861;28;20521;-75
2023/03/04 12:25:49;;;;;;;68.43;47.08;;;;;;;11.37;100.00;100380.09;4997889;28;20073;-75
2023/03/04 12:28:24;;;;;;;68.18;46.13;;;;;;;11.65;100.00;100380.00;4979131;28;20069;-73
2023/03/04 12:31:08;;;;;;;66.63;43.50;;;;;;;11.37;100.00;100387.13;5001463;28;20478;-75
2023/03/04 12:33:39;;;;;;;70.40;47.47;;;;;;;11.05;100.00;100371.47;5000583;28;20857;-73
2023/03/04 12:36:23;;;;;;;65.63;44.13;;;;;;;11.35;100.00;100368.72;4999551;28;20058;-74
2023/03/04 12:39:10;;;;;;;82.50;44.25;;;;;;;10.99;100.00;100372.34;5009039;28;20043;-74
2023/03/04 12:42:17;;;;;;;68.60;47.17;;;;;;;11.32;100.00;100370.50;4994681;28;20054;-74
2023/03/04 12:45:14;;;;;;;64.22;45.08;;;;;;;11.52;100.00;100366.06;4987867;28;20507;-74
2023/03/04 12:47:43;;;;;;;63.70;43.83;;;;;;;11.27;100.00;100364.41;4994444;28;20041;-74
2023/03/04 12:50:29;;;;;;;66.45;46.13;;;;;;;11.57;100.00;100347.63;5000987;28;20054;-75
2023/03/04 12:53:04;;;;;;;69.97;47.92;;;;;;;11.80;100.00;100343.13;4990110;28;20133;-74
2023/03/04 12:55:38;;;;;;;75.97;44.17;;;;;;;11.54;100.00;100330.13;4997222;28;20057;-74
2023/03/04 12:58:12;;;;;;;70.03;46.03;;;;;;;11.70;100.00;100296.72;4983947;28;20042;-74
2023/03/04 13:01:03;;;;;;;66.88;44.22;;;;;;;11.37;100.00;100337.22;4979760;28;20510;-74
2023/03/04 13:03:58;;;;;;;66.38;39.40;;;;;;;11.82;100.00;100338.72;4979575;28;20479;-73
2023/03/04 13:07:08;;;;;;;58.42;41.53;;;;;;;11.69;100.00;100326.53;4961868;28;20062;-74
2023/03/04 13:09:49;;;;;;;65.47;39.63;;;;;;;11.20;100.00;100214.72;4979697;28;20054;-74
2023/03/04 13:12:22;;;;;;;61.72;42.15;;;;;;;11.83;100.00;100322.06;4982926;28;20410;-74
2023/03/04 13:15:06;;;;;;;;;;;;;;;11.92;100.00;100320.31;4978258;28;20082;-73
2023/03/04 13:17:44;;;;;;;54.05;34.05;;;;;;;11.41;100.00;100262.75;4986032;28;19941;-74
2023/03/04 13:20:21;;;;;;;59.78;37.55;;;;;;;10.95;100.00;100192.97;4979489;28;20054;-74
2023/03/04 13:22:51;;;;;;;53.95;37.63;;;;;;;11.04;100.00;100196.44;4990316;28;20054;-73
2023/03/04 13:25:29;;;;;;;60.45;42.22;;;;;;;11.54;100.00;100316.09;4984125;28;20477;-74
2023/03/04 13:28:01;;;;;;;62.60;39.20;;;;;;;12.00;100.00;100295.66;4987799;28;20060;-74
2023/03/04 13:30:37;;;;;;;62.13;40.35;;;;;;;11.44;100.00;100202.31;4986902;28;20066;-72
2023/03/04 13:33:12;;;;;;;56.55;40.30;;;;;;;11.67;100.00;100293.25;4985203;28;20085;-72
2023/03/04 13:36:00;;;;;;;56.92;38.20;;;;;;;12.18;100.00;100288.53;4980512;28;20513;-72
2023/03/04 13:38:26;;;;;;;64.18;43.35;;;;;;;12.15;100.00;100304.31;4983745;28;20189;-74
2023/03/04 13:41:30;;;;;;;63.88;40.30;;;;;;;11.78;100.00;100283.56;4981433;28;20936;-70
2023/03/04 13:43:57;;;;;;;63.00;43.50;;;;;;;11.46;100.00;100165.53;4965361;28;20066;-69
2023/03/04 13:46:23;;;;;;;67.22;42.35;;;;;;;12.14;100.00;100263.13;4987335;28;20160;-70
2023/03/04 13:48:48;;;;;;;71.65;42.40;;;;;;;12.22;100.00;100266.56;4977945;28;20050;-68
2023/03/04 13:51:26;;;;;;;68.25;47.45;;;;;;;11.94;100.00;100266.81;4988153;28;20077;-69
2023/03/04 13:53:53;;;;;;;69.93;44.55;;;;;;;11.87;100.00;100230.94;4976743;28;20166;-70
2023/03/04 13:56:46;;;;;;;70.85;41.53;;;;;;;11.59;100.00;100243.38;4982737;28;20073;-70
2023/03/04 13:59:42;;;;;;;56.33;38.63;;;;;;;11.98;100.00;100242.22;4981262;28;20058;-71
2023/03/04 14:02:14;;;;;;;72.75;47.45;;;;;;;12.17;100.00;100239.41;4980918;28;20049;-71
2023/03/04 14:05:04;;;;;;;68.95;42.92;;;;;;;12.20;100.00;100237.66;4976352;28;20770;-71
2023/03/04 14:07:31;;;;;;;73.72;41.65;;;;;;;11.80;100.00;100219.56;4981122;28;20049;-71
2023/03/04 14:10:12;;;;;;;71.97;44.15;;;;;;;11.77;100.00;100250.25;4983792;28;20576;-69
2023/03/04 14:12:58;;;;;;;78.90;47.20;;;;;;;11.54;100.00;100214.50;4979798;28;20038;-70
2023/03/04 14:15:23;;;;;;;62.65;42.85;;;;;;;11.54;100.00;100227.66;4983953;28;20136;-70
2023/03/04 14:17:55;;;;;;;71.35;44.35;;;;;;;10.96;100.00;100128.22;4982033;28;20494;-71
2023/03/04 14:20:38;;;;;;;66.03;45.10;;;;;;;11.01;100.00;100129.06;5014671;28;20418;-69
2023/03/04 14:23:23;;;;;;;66.53;45.75;;;;;;;11.71;100.00;100219.63;4985366;28;20118;-70
2023/03/04 14:25:48;;;;;;;67.45;47.53;;;;;;;10.83;100.00;100105.53;4984835;28;20038;-71
2023/03/04 14:28:19;;;;;;;74.45;46.80;;;;;;;11.01;100.00;100125.56;4985417;28;20054;-70
2023/03/04 14:30:56;;;;;;;76.43;47.88;;;;;;;11.39;100.00;100217.22;4980730;28;20084;-70
2023/03/04 14:33:25;;;;;;;81.78;50.67;;;;;;;11.25;100.00;100172.66;4986324;28;20088;-70
2023/03/04 14:35:54;;;;;;;89.78;51.42;;;;;;;10.52;100.00;100082.97;4978169;28;20070;-71
2023/03/04 14:38:48;;;;;;;88.68;53.03;;;;;;;10.33;100.00;100092.69;4982772;28;20534;-69
2023/03/04 14:41:17;;;;;;;;;;;;;;;11.20;100.00;100195.47;4981857;28;20049;-70
2023/03/04 14:44:13;;;;;;;84.57;53.65;;;;;;;10.97;100.00;100191.19;4976511;28;20428;-70
2023/03/04 14:46:49;;;;;;;82.20;51.88;;;;;;;10.15;100.00;100056.00;4979219;28;20038;-70
2023/03/04 14:49:15;;;;;;;80.30;46.88;;;;;;;10.76;100.00;100171.19;4974653;28;20153;-69
2023/03/04 14:51:53;;;;;;;82.60;50.58;;;;;;;10.97;100.00;100178.06;4985510;28;20097;-70
2023/03/04 14:54:39;;;;;;;73.75;47.10;;;;;;;10.90;100.00;100188.63;4987037;28;20158;-70
2023/03/04 14:57:25;;;;;;;72.60;45.40;;;;;;;10.42;100.00;100093.50;4980714;28;20039;-71
2023/03/04 14:59:51;;;;;;;70.05;45.78;;;;;;;10.95;100.00;100182.47;4976343;28;20493;-71
2023/03/04 15:02:23;;;;;;;78.25;42.20;;;;;;;9.96;100.00;100102.38;4973736;28;20486;-70
2023/03/04 15:04:50;;;;;;;70.70;43.28;;;;;;;10.56;100.00;100186.16;4983912;28;20067;-69
2023/03/04 15:07:24;;;;;;;68.50;42.17;;;;;;;10.44;100.00;100173.06;4982174;28;20139;-68
2023/03/04 15:09:54;;;;;;;71.18;44.60;;;;;;;10.32;100.00;100161.75;4982215;28;20030;-69
2023/03/04 15:12:27;;;;;;;69.63;46.58;;;;;;;10.53;100.00;100167.78;4975696;28;20039;-71
2023/03/04 15:14:56;;;;;;;85.00;45.40;;;;;;;9.76;100.00;100067.47;4978863;28;20144;-70
2023/03/04 15:17:31;;;;;;;70.38;44.00;;;;;;;10.04;100.00;100097.97;4977620;28;20410;-71
2023/03/04 15:20:02;;;;;;;68.85;44.72;;;;;;;9.80;100.00;100028.16;4982248;28;20506;-71
2023/03/04 15:22:28;;;;;;;77.10;45.47;;;;;;;10.11;100.00;100133.81;4983088;28;20045;-69
2023/03/04 15:24:54;;;;;;;75.40;47.25;;;;;;;10.26;100.00;100146.00;4984292;28;20034;-70
2023/03/04 15:27:23;;;;;;;72.65;47.50;;;;;;;9.40;100.00;100004.69;4976136;28;20442;-71
2023/03/04 15:29:49;;;;;;;69.15;46.28;;;;;;;9.48;100.00;100010.81;4982336;28;20046;-70
2023/03/04 15:32:14;;;;;;;67.63;43.58;;;;;;;9.52;100.00;100048.31;4980675;28;20146;-70
2023/03/04 15:34:40;;;;;;;81.03;46.67;;;;;;;9.93;100.00;100076.19;4984203;28;20039;-69
2023/03/04 15:37:06;;;;;;;74.78;48.92;;;;;;;9.60;100.00;100030.84;4981006;28;20136;-70
2023/03/04 15:39:31;;;;;;;61.85;41.05;;;;;;;10.08;100.00;100112.81;4983160;28;20034;-68
2023/03/04 15:41:57;;;;;;;64.75;42.53;;;;;;;9.76;100.00;100072.72;4969269;28;20050;-69
2023/03/04 15:44:23;;;;;;;64.70;43.10;;;;;;;9.24;100.00;99975.03;4995809;28;20042;-71
2023/03/04 15:46:48;;;;;;;70.97;41.28;;;;;;;9.76;100.00;100062.25;4975233;28;20499;-69
2023/03/04 15:49:13;;;;;;;62.03;41.85;;;;;;;9.98;100.00;100100.63;4980832;28;20514;-72
2023/03/04 15:51:39;;;;;;;69.00;43.05;;;;;;;9.20;100.00;99954.09;4980774;28;20035;-71
2023/03/04 15:54:13;;;;;;;63.20;43.35;;;;;;;9.75;100.00;100055.28;4977174;28;20059;-69
2023/03/04 15:56:38;;;;;;;72.97;43.50;;;;;;;8.88;100.00;99937.59;4978037;28;20065;-70
2023/03/04 15:59:11;;;;;;;60.50;40.92;;;;;;;9.16;100.00;99976.81;4982458;28;20047;-69
2023/03/04 16:01:37;;;;;;;58.77;39.87;;;;;;;9.55;100.00;100044.81;5010466;28;20097;-69
2023/03/04 16:04:02;;;;;;;51.40;38.53;;;;;;;9.02;100.00;99955.91;4980216;28;20443;-70
2023/03/04 16:06:30;;;;;;;68.22;40.00;;;;;;;9.69;100.00;100085.84;4983190;28;20045;-69
2023/03/04 16:08:57;;;;;;;56.85;38.75;;;;;;;9.76;100.00;100089.31;4977404;28;20141;-71
2023/03/04 16:11:25;;;;;;;52.50;35.60;;;;;;;9.76;100.00;100077.97;4980174;28;20065;-70
2023/03/04 16:13:51;;;;;;;48.55;33.85;;;;;;;9.72;100.00;100075.34;4979059;28;20049;-70
2023/03/04 16:16:17;;;;;;;50.85;35.05;;;;;;;8.95;100.00;99961.16;4979244;28;20046;-71
2023/03/04 16:18:43;;;;;;;48.13;34.47;;;;;;;8.93;100.00;99953.28;4983525;28;20164;-70
2023/03/04 16:21:13;;;;;;;50.08;31.90;;;;;;;8.98;100.00;99956.75;4984205;28;20070;-73
2023/03/04 16:23:42;;;;;;;49.35;33.13;;;;;;;9.74;100.00;100085.84;4981936;28;20641;-70
2023/03/04 16:26:12;;;;;;;45.72;34.22;;;;;;;8.88;100.00;99950.66;4979831;28;20522;-70
2023/03/04 16:28:38;;;;;;;44.08;31.63;;;;;;;9.59;100.00;100073.63;4976824;28;20103;-70
2023/03/04 16:31:04;;;;;;;42.78;31.40;;;;;;;8.71;100.00;99933.22;4982902;28;20046;-70
2023/03/04 16:33:29;;;;;;;46.28;32.78;;;;;;;9.47;100.00;100071.03;4982813;28;20034;-70
2023/03/04 16:35:55;;;;;;;49.03;33.08;;;;;;;9.33;100.00;100030.91;4978874;28;20043;-71
2023/03/04 16:38:27;;;;;;;47.20;32.25;;;;;;;8.61;100.00;99917.53;4977363;28;20063;-69
2023/03/04 16:40:54;;;;;;;45.85;32.60;;;;;;;8.54;100.00;99922.78;4986762;28;20058;-69
2023/03/04 16:43:20;;;;;;;46.55;34.05;;;;;;;9.47;100.00;100065.78;4985446;28;20039;-69
2023/03/04 16:45:47;;;;;;;50.03;33.80;;;;;;;8.81;100.00;99954.16;4982647;28;20505;-70
2023/03/04 16:48:13;;;;;;;51.20;33.35;;;;;;;8.67;100.00;99932.38;4982834;28;20065;-73
2023/03/04 16:50:39;;;;;;;47.40;34.17;;;;;;;8.77;100.00;99959.41;4980537;28;20055;-72
2023/03/04 16:53:26;;;;;;;48.33;31.95;;;;;;;9.42;100.00;100057.94;4982623;28;20300;-71
2023/03/04 16:55:51;;;;;;;44.03;34.58;;;;;;;8.55;100.00;99919.31;4987007;28;20046;-73
2023/03/04 16:58:17;;;;;;;51.40;33.00;;;;;;;9.28;100.00;100047.47;4983727;28;20077;-72
2023/03/04 17:00:43;;;;;;;40.80;31.92;;;;;;;9.44;100.00;100058.81;4983286;28;20553;-70
2023/03/04 17:03:09;;;;;;;52.40;34.42;;;;;;;9.29;100.00;100046.63;4982224;28;20056;-73
2023/03/04 17:05:35;;;;;;;42.50;31.48;;;;;;;9.17;100.00;100033.53;4986730;28;20450;-73
2023/03/04 17:08:01;;;;;;;54.95;33.50;;;;;;;9.24;100.00;100055.34;4983240;28;20066;-76
2023/03/04 17:10:26;;;;;;;47.47;33.50;;;;;;;9.26;100.00;100030.91;4982303;28;20162;-74
2023/03/04 17:12:52;;;;;;;55.55;33.28;;;;;;;9.12;100.00;100023.94;4989517;28;20042;-74
2023/03/04 17:15:18;;;;;;;49.17;32.55;;;;;;;8.74;100.00;99946.31;4975838;28;20069;-72
2023/03/04 17:17:44;;;;;;;43.60;32.40;;;;;;;9.26;100.00;100043.97;4983762;28;20843;-74
2023/03/04 17:20:15;;;;;;;44.17;31.63;;;;;;;8.52;100.00;99916.66;4976334;28;20081;-76
2023/03/04 17:22:41;;;;;;;55.10;32.20;;;;;;;9.27;100.00;100043.13;4983440;28;20069;-72
2023/03/04 17:25:08;;;;;;;53.60;33.33;;;;;;;9.10;100.00;100037.00;4989681;28;20556;-74
2023/03/04 17:27:33;;;;;;;45.40;33.05;;;;;;;8.29;100.00;99899.22;4982085;28;20542;-71
2023/03/04 17:29:59;;;;;;;43.97;33.67;;;;;;;8.40;100.00;99912.31;4976978;28;20466;-72
2023/03/04 17:32:28;;;;;;;46.25;34.17;;;;;;;8.40;100.00;99910.56;4985093;28;20497;-72
2023/03/04 17:34:54;;;;;;;54.95;37.17;;;;;;;8.46;100.00;99935.84;4985256;28;20085;-73
2023/03/04 17:37:20;;;;;;;50.47;33.60;;;;;;;8.92;100.00;100016.06;4983968;28;20030;-72
2023/03/04 17:39:46;;;;;;;55.00;35.30;;;;;;;9.02;100.00;100047.50;4986563;28;20042;-72
2023/03/04 17:42:11;;;;;;;48.45;35.60;;;;;;;8.51;100.00;99962.88;4983918;28;20672;-74
2023/03/04 17:44:37;;;;;;;47.97;31.15;;;;;;;9.01;100.00;100045.75;4988600;28;20550;-75
2023/03/04 17:47:03;;;;;;;43.83;35.78;;;;;;;8.92;100.00;100035.28;4984537;28;20058;-74
2023/03/04 17:49:28;;;;;;;53.95;31.10;;;;;;;8.87;100.00;100011.72;4986945;28;20092;-74
2023/03/04 17:51:54;;;;;;;48.85;32.22;;;;;;;9.01;100.00;100037.91;4988157;28;20037;-73
2023/03/04 17:54:19;;;;;;;46.88;33.67;;;;;;;8.86;100.00;100024.81;4985204;28;20041;-71
2023/03/04 17:56:45;;;;;;;47.35;31.00;;;;;;;8.36;100.00;99936.69;4983754;28;20051;-72
2023/03/04 17:59:13;;;;;;;48.08;33.25;;;;;;;8.39;100.00;99934.06;4976249;28;20042;-73
2023/03/04 18:01:39;;;;;;;57.65;33.38;;;;;;;8.94;100.00;100038.75;4976131;28;20082;-71
2023/03/04 18:04:05;;;;;;;51.10;33.97;;;;;;;8.84;100.00;100011.72;4975986;28;20685;-72
2023/03/04 18:06:31;;;;;;;51.28;36.55;;;;;;;8.86;100.00;100028.28;4982578;28;20030;-71
2023/03/04 18:08:56;;;;;;;48.28;32.63;;;;;;;8.80;100.00;100004.75;4975201;28;20059;-72
2023/03/04 18:11:24;;;;;;;49.08;32.92;;;;;;;8.87;100.00;100044.84;4985907;28;20093;-71
2023/03/04 18:13:51;;;;;;;45.03;32.55;;;;;;;8.88;100.00;100039.63;4983161;28;20042;-71
2023/03/04 18:16:22;;;;;;;52.38;34.47;;;;;;;8.83;100.00;100016.97;4973786;28;20042;-73
2023/03/04 18:18:49;;;;;;;46.63;34.55;;;;;;;8.15;100.00;99922.72;5004085;28;20030;-71
2023/03/04 18:21:15;;;;;;;49.78;34.63;;;;;;;8.91;100.00;100040.50;4991856;28;20036;-71
2023/03/04 18:23:41;;;;;;;48.45;32.55;;;;;;;8.79;100.00;100044.84;4981335;28;20427;-71
2023/03/04 18:26:06;;;;;;;38.97;32.22;;;;;;;8.01;100.00;99916.59;4984641;28;20057;-72
2023/03/04 18:28:32;;;;;;;44.78;32.67;;;;;;;7.96;100.00;99910.44;4985189;28;20057;-71
2023/03/04 18:30:59;;;;;;;44.50;33.25;;;;;;;8.86;100.00;100043.97;5007733;28;20042;-70
2023/03/04 18:33:25;;;;;;;51.85;32.92;;;;;;;8.65;100.00;100021.28;4983153;28;20378;-71
2023/03/04 18:36:00;;;;;;;43.03;32.40;;;;;;;8.19;100.00;99955.81;4970697;28;20687;-70
2023/03/04 18:38:26;;;;;;;64.75;34.70;;;;;;;8.69;100.00;100066.63;4982738;28;20078;-71
2023/03/04 18:40:55;;;;;;;57.15;34.65;;;;;;;8.53;100.00;100025.63;4977771;28;20138;-71
2023/03/04 18:43:21;;;;;;;52.05;33.47;;;;;;;7.87;100.00;99911.31;4978248;28;20058;-72
2023/03/04 18:46:18;;;;;;;45.17;31.67;;;;;;;8.10;100.00;99975.81;4975665;28;20041;-71
2023/03/04 18:48:47;;;;;;;43.47;32.10;;;;;;;7.76;100.00;99908.66;4975350;28;20053;-69
2023/03/04 18:51:13;;;;;;;43.35;33.25;;;;;;;8.32;100.00;100006.38;4984569;28;20037;-70
2023/03/04 18:53:38;;;;;;;47.05;33.00;;;;;;;7.90;100.00;99931.34;4984112;28;20089;-69
2023/03/04 18:56:10;;;;;;;60.78;32.70;;;;;;;7.61;100.00;99866.84;4983881;28;20050;-72
2023/03/04 18:58:37;;;;;;;52.00;32.50;;;;;;;8.40;100.00;100027.34;4980638;28;20503;-70
2023/03/04 19:01:06;;;;;;;43.90;31.90;;;;;;;8.55;100.00;100066.59;4983506;28;20054;-71
2023/03/04 19:03:36;;;;;;;43.05;30.25;;;;;;;8.27;100.00;100015.09;4984262;28;20095;-72
2023/03/04 19:06:02;;;;;;;45.33;31.05;;;;;;;8.19;100.00;100018.56;4982542;28;20578;-71
2023/03/04 19:08:28;;;;;;;39.35;30.05;;;;;;;8.41;100.00;100066.56;4984400;28;20052;-73
2023/03/04 19:10:54;;;;;;;44.65;31.63;;;;;;;8.41;100.00;100058.72;4981875;28;20538;-72
2023/03/04 19:13:21;;;;;;;44.78;33.53;;;;;;;7.71;100.00;99957.41;4982923;28;20092;-70
2023/03/04 19:15:48;;;;;;;51.78;31.17;;;;;;;7.52;100.00;99926.88;4975690;28;20431;-72
2023/03/04 19:18:14;;;;;;;46.05;32.58;;;;;;;7.74;100.00;99949.56;4978308;28;20060;-72
2023/03/04 19:20:40;;;;;;;55.95;33.88;;;;;;;7.61;100.00;99940.81;4975878;28;20074;-73
2023/03/04 19:23:08;;;;;;;45.60;30.73;;;;;;;7.61;100.00;99938.22;4981276;28;20058;-72
2023/03/04 19:25:36;;;;;;;46.63;34.65;;;;;;;7.61;100.00;99958.25;4980000;28;20580;-73
2023/03/04 19:28:02;;;;;;;53.05;33.75;;;;;;;8.22;100.00;100065.59;4977851;28;20054;-71
2023/03/04 19:30:28;;;;;;;53.35;36.85;;;;;;;7.98;100.00;100031.50;4981183;28;20038;-73
2023/03/04 19:32:54;;;;;;;52.47;36.03;;;;;;;7.51;100.00;99949.47;4979377;28;20415;-73
2023/03/04 19:35:19;;;;;;;53.53;34.83;;;;;;;7.27;100.00;99926.72;4983176;28;20064;-70
2023/03/04 19:37:45;;;;;;;56.20;35.85;;;;;;;7.99;100.00;100051.56;4986442;28;20220;-71
2023/03/04 19:40:11;;;;;;;48.10;34.63;;;;;;;8.19;100.00;100073.44;4976809;28;20047;-70
2023/03/04 19:42:36;;;;;;;50.30;33.90;;;;;;;7.29;100.00;99937.19;4978657;28;20060;-71
2023/03/04 19:45:08;;;;;;;48.60;34.20;;;;;;;8.00;100.00;100061.13;4974318;28;20066;-71
2023/03/04 19:47:43;;;;;;;46.53;32.33;;;;;;;8.09;100.00;100070.75;4977682;28;20160;-73
2023/03/04 19:50:10;;;;;;;41.75;31.58;;;;;;;6.91;100.00;99878.69;4979449;28;20058;-72
2023/03/04 19:52:36;;;;;;;48.53;31.73;;;;;;;7.32;100.00;99958.06;4981014;28;20123;-70
2023/03/04 19:55:03;;;;;;;48.25;33.33;;;;;;;7.95;100.00;100074.16;4976138;28;20483;-70
2023/03/04 19:57:29;;;;;;;46.38;31.48;;;;;;;7.10;100.00;99931.00;4985300;28;20873;-71
2023/03/04 19:59:55;;;;;;;43.47;29.05;;;;;;;8.01;100.00;100076.81;4980655;28;20095;-71
2023/03/04 20:02:20;;;;;;;42.22;31.65;;;;;;;7.88;100.00;100082.84;4980579;28;20058;-73
2023/03/04 20:04:46;;;;;;;39.42;28.45;;;;;;;8.02;100.00;100085.53;4972169;28;20034;-72
2023/03/04 20:07:11;;;;;;;43.97;29.58;;;;;;;7.22;100.00;99970.19;4974552;28;20082;-73
2023/03/04 20:09:37;;;;;;;48.53;29.95;;;;;;;7.81;100.00;100058.41;4978970;28;20084;-74
2023/03/04 20:12:03;;;;;;;40.67;32.20;;;;;;;7.80;100.00;100061.03;4980677;28;20125;-71
2023/03/04 20:14:30;;;;;;;51.67;35.08;;;;;;;7.70;100.00;100073.19;4984108;28;20105;-72
2023/03/04 20:16:59;;;;;;;53.53;31.70;;;;;;;7.68;100.00;100053.13;4984757;28;20137;-71
2023/03/04 20:19:25;;;;;;;45.08;31.65;;;;;;;6.98;100.00;99958.72;4980284;28;20054;-75
2023/03/04 20:21:50;;;;;;;62.63;34.33;;;;;;;6.48;100.00;99838.41;4979586;28;20049;-70
2023/03/04 20:24:21;;;;;;;49.65;31.05;;;;;;;7.66;100.00;100058.34;4982898;28;20471;-71
2023/03/04 20:26:47;;;;;;;48.67;31.45;;;;;;;7.61;100.00;100073.13;4973881;28;20085;-70
2023/03/04 20:29:13;;;;;;;47.47;33.10;;;;;;;7.58;100.00;100071.34;4983953;28;20134;-71
2023/03/04 20:31:39;;;;;;;46.60;31.27;;;;;;;7.58;100.00;100078.31;4985206;28;20061;-71
2023/03/04 20:34:06;;;;;;;47.47;30.10;;;;;;;6.90;100.00;99951.69;4983612;28;20054;-71
2023/03/04 20:36:32;;;;;;;44.38;29.48;;;;;;;6.88;100.00;99972.56;4986975;28;20038;-72
2023/03/04 20:38:57;;;;;;;58.00;31.52;;;;;;;6.69;100.00;99948.06;4983528;28;20553;-71
2023/03/04 20:41:24;;;;;;;42.05;32.13;;;;;;;6.61;100.00;99939.31;4982690;28;20046;-73
2023/03/04 20:43:50;;;;;;;57.28;32.08;;;;;;;7.40;100.00;100071.25;4976244;28;20137;-71
2023/03/04 20:46:31;;;;;;;46.63;31.00;;;;;;;7.30;100.00;100078.09;4976933;28;20536;-72
2023/03/04 20:49:00;;;;;;;50.35;29.92;;;;;;;7.31;100.00;100060.72;4980403;28;20058;-72
2023/03/04 20:51:26;;;;;;;42.15;27.98;;;;;;;6.62;100.00;99933.22;4980760;28;20038;-71
2023/03/04 20:53:54;;;;;;;46.42;30.05;;;;;;;7.32;100.00;100060.72;4982276;28;20051;-73
2023/03/04 20:56:20;;;;;;;48.40;31.80;;;;;;;6.40;100.00;99915.69;4987724;28;20047;-71
2023/03/04 20:58:46;;;;;;;44.25;31.73;;;;;;;6.57;100.00;99940.16;4981380;28;20512;-75
2023/03/04 21:01:12;;;;;;;46.42;30.05;;;;;;;6.93;100.00;100019.53;4982562;28;20046;-72
2023/03/04 21:03:39;;;;;;;50.30;28.73;;;;;;;6.60;100.00;99960.16;4976918;28;20029;-74
2023/03/04 21:06:07;;;;;;;43.35;29.25;;;;;;;6.97;100.00;100040.44;4979450;28;20140;-74
2023/03/04 21:08:33;;;;;;;46.00;30.42;;;;;;;7.03;100.00;100055.28;4981115;28;20165;-72
2023/03/04 21:10:59;;;;;;;44.47;31.13;;;;;;;7.24;100.00;100070.25;4983662;28;20062;-71
2023/03/04 21:13:29;;;;;;;56.45;33.13;;;;;;;6.48;100.00;99927.03;4981845;28;20684;-72
2023/03/04 21:15:58;;;;;;;46.13;28.58;;;;;;;6.28;100.00;99919.06;4977726;28;20550;-70
2023/03/04 21:18:24;;;;;;;47.88;31.25;;;;;;;6.89;100.00;100028.22;4982372;28;20034;-73
2023/03/04 21:20:53;;;;;;;47.65;30.10;;;;;;;7.11;100.00;100058.81;4982723;28;20086;-71
2023/03/04 21:23:19;;;;;;;43.33;29.77;;;;;;;7.12;100.00;100057.09;4979109;28;20044;-72
2023/03/04 21:25:47;;;;;;;53.92;34.88;;;;;;;7.05;100.00;100058.78;4979459;28;20038;-72
2023/03/04 21:28:13;;;;;;;45.70;30.45;;;;;;;6.96;100.00;100030.88;4986146;28;20078;-71
2023/03/04 21:30:38;;;;;;;51.97;32.35;;;;;;;6.17;100.00;99910.25;4982850;28;20034;-73
2023/03/04 21:33:12;;;;;;;47.88;30.10;;;;;;;6.87;100.00;100036.00;4982588;28;20069;-74
2023/03/04 21:35:38;;;;;;;46.20;31.27;;;;;;;7.03;100.00;100052.66;4981797;28;20041;-72
2023/03/04 21:38:03;;;;;;;46.45;31.65;;;;;;;6.21;100.00;99909.44;4977466;28;20056;-72
2023/03/04 21:40:29;;;;;;;50.97;29.50;;;;;;;6.91;100.00;100037.78;4981921;28;20046;-71
2023/03/04 21:42:54;;;;;;;43.88;29.13;;;;;;;6.75;100.00;100015.03;4980832;28;20442;-71
2023/03/04 21:45:20;;;;;;;45.92;30.73;;;;;;;6.51;100.00;99984.41;4983766;28;20044;-71
2023/03/04 21:47:45;;;;;;;57.67;33.28;;;;;;;6.62;100.00;100016.66;4990900;28;20050;-73
2023/03/04 21:50:11;;;;;;;45.38;30.77;;;;;;;5.72;100.00;99895.00;4983250;28;20820;-72
2023/03/04 21:52:36;;;;;;;50.17;31.48;;;;;;;6.07;100.00;99940.56;4981416;28;20051;-70
2023/03/04 21:55:02;;;;;;;44.03;31.02;;;;;;;5.74;100.00;99895.03;4978507;28;20753;-70
2023/03/04 21:57:27;;;;;;;48.72;34.25;;;;;;;6.44;100.00;100024.28;4977035;28;20030;-70
2023/03/04 21:59:53;;;;;;;52.50;30.23;;;;;;;5.70;100.00;99886.28;4978178;28;20070;-70
2023/03/04 22:02:21;;;;;;;49.97;30.95;;;;;;;6.49;100.00;100038.25;4986089;28;20133;-71
2023/03/04 22:04:47;;;;;;;45.53;33.42;;;;;;;6.50;100.00;100032.19;4978163;28;20047;-70
2023/03/04 22:07:12;;;;;;;50.28;32.35;;;;;;;5.50;100.00;99896.50;4985606;28;20054;-71
2023/03/04 22:09:38;;;;;;;59.70;31.50;;;;;;;5.37;100.00;99875.50;4977424;28;20089;-72
2023/03/04 22:12:04;;;;;;;48.50;31.17;;;;;;;5.42;100.00;99874.69;4981720;28;20041;-72
2023/03/04 22:14:30;;;;;;;46.28;31.70;;;;;;;5.36;100.00;99869.44;4969975;28;20209;-70
2023/03/04 22:16:56;;;;;;;54.28;32.60;;;;;;;6.13;100.00;100000.50;4981244;28;20054;-73
2023/03/04 22:19:26;;;;;;;54.13;31.42;;;;;;;5.44;100.00;99885.13;4979956;28;20046;-71
2023/03/04 22:21:52;;;;;;;47.42;30.75;;;;;;;6.10;100.00;99996.13;4976317;28;20035;-71
2023/03/04 22:24:19;;;;;;;43.97;23.15;;;;;;;6.12;100.00;100001.38;4982261;28;20049;-74
2023/03/04 22:26:44;;;;;;;49.20;28.20;;;;;;;5.94;100.00;99975.97;4978418;28;20158;-71
2023/03/04 22:29:10;;;;;;;40.92;29.33;;;;;;;6.19;100.00;100016.22;4988560;28;20069;-72
2023/03/04 22:31:37;;;;;;;44.40;27.25;;;;;;;5.33;100.00;99873.72;4984359;28;20075;-73
2023/03/04 22:34:12;;;;;;;48.90;28.13;;;;;;;6.19;100.00;100021.41;4983612;28;20467;-72
2023/03/04 22:36:41;;;;;;;28.83;18.02;;;;;;;5.36;100.00;99887.66;4978965;28;20034;-74
2023/03/04 22:39:08;;;;;;;55.42;29.63;;;;;;;5.95;100.00;99992.47;4983749;28;20042;-73
2023/03/04 22:41:34;;;;;;;40.17;28.77;;;;;;;6.14;100.00;100023.09;4981520;28;20038;-71
2023/03/04 22:44:00;;;;;;;30.70;18.67;;;;;;;5.29;100.00;99858.09;4978248;28;20046;-73
2023/03/04 22:46:28;;;;;;;53.00;28.98;;;;;;;5.99;100.00;100015.97;4977310;28;20508;-73
2023/03/04 22:48:57;;;;;;;30.77;17.98;;;;;;;5.60;100.00;99944.31;4985700;28;20077;-72
2023/03/04 22:51:23;;;;;;;37.85;20.13;;;;;;;5.98;100.00;100023.78;4978401;28;20053;-72
2023/03/04 22:53:50;;;;;;;43.53;27.35;;;;;;;5.69;100.00;99969.59;4985210;28;20060;-72
2023/03/04 22:56:16;;;;;;;39.25;28.98;;;;;;;5.86;100.00;100017.53;4982901;28;20073;-72
2023/03/04 22:58:43;;;;;;;36.67;19.55;;;;;;;5.16;100.00;99876.97;4982393;28;20086;-71
2023/03/04 23:01:09;;;;;;;32.25;15.93;;;;;;;5.82;100.00;99989.69;4986001;28;20050;-73
2023/03/04 23:03:36;;;;;;;34.67;19.52;;;;;;;5.93;100.00;100008.94;4983279;28;20034;-72
2023/03/04 23:06:05;;;;;;;33.75;17.98;;;;;;;5.21;100.00;99903.03;4982198;28;20165;-71
2023/03/04 23:08:32;;;;;;;44.42;27.60;;;;;;;4.93;100.00;99855.88;4980606;28;20537;-71
2023/03/04 23:10:58;;;;;;;52.30;30.05;;;;;;;5.76;100.00;100022.59;4977698;28;20136;-72
2023/03/04 23:13:23;;;;;;;33.83;16.90;;;;;;;4.83;100.00;99874.78;4985718;28;20065;-73